Marten Depay

Chefscout - Feyenoord
19 Aug 2027
Donnerstag
Verarbeitung

Persönlichkeit

Anpassungsfähigkeit (2) Ehrgeiz (1) Kontroverse (15) Loyalität (10) Druck (16) Professionalität (12) Fairness (18) Temperament (9)

Profil

Trainerstil Demokratisch
Lizenz Kontinentale Pro
Entschlossenheit 15
Menschenführung 11
Motivation 7
Disziplin 15
Arbeitszufriedenheit
43%
Ermüdung
0%
Rolle Chefscout
Gehalt 35.1K p/W
Vertrag 14.03.2030

Leistung

Verhalten Gut
Trainingseffektivität
34%
Spielerentwicklung
55%
Verletzungsprävention
35%
Taktische Umsetzung
60%

Letzte Ereignisse

Spieler begutachtet jetzt
Nahm an einer Scouting-Besprechung teil 7T her
Spieler begutachtet 7T her
Spieler begutachtet 7T her
Spieler begutachtet 7T her
Spieler begutachtet 7T her
Spieler begutachtet 7T her
Spieler begutachtet 7T her

Aktuell beobachtet

109
Spieler Verein Status Fähigkeit Vertrauen Beobachtet Zuletzt beobachtet Letzte Stimme
Nuno Tavares Lazio Aktiv 146 / 149 40% 2 17.08.2027 -
Giorgio Scalvini Atalanta Aktiv 155 / 149 40% 1 17.08.2027 -
Pape Guèye Villarreal Aktiv 148 / 149 40% 2 16.08.2027 -
Guille Rosas Gijón Aktiv 141 / 154 40% 2 16.08.2027 -
Gavi Barcelona Aktiv 167 / 154 40% 3 15.08.2027 -
Manuel Locatelli Juventus Aktiv 165 / 147 40% 1 15.08.2027 -
Alessandro Buongiorno Sassuolo Aktiv 155 / 158 40% 2 14.08.2027 -
Kike Salas Sevilla Aktiv 156 / 149 40% 2 13.08.2027 -
Thierry Rendall Correia Venezia Aktiv 141 / 133 40% 1 13.08.2027 -
Pol Lozano Espanyol Aktiv 139 / 133 40% 3 12.08.2027 -
Logan Costa Villarreal Aktiv 150 / 150 40% 1 12.08.2027 -
Pierre Kalulu Juventus Aktiv 166 / 161 40% 1 10.08.2027 -
Iván Martín Racing Santander Aktiv 144 / 155 40% 5 08.08.2027 -
Eduardo Camavinga Real Madrid Aktiv 170 / 163 40% 2 08.08.2027 -
Ryan Sessegnon Fulham Aktiv 157 / 145 40% 2 07.08.2027 -
Curtis Jones Inter Aktiv 154 / 149 40% 3 07.08.2027 -
Arnau Martínez Valencia Aktiv 142 / 154 40% 1 06.08.2027 -
Noussair Mazraoui Manchester United Aktiv 155 / 154 40% 3 05.08.2027 -
Nordi Mukiele Sunderland Aktiv 158 / 142 40% 3 04.08.2027 -
Anton Stach Leeds United Aktiv 144 / 144 40% 3 04.08.2027 -
Fran García Betis Aktiv 159 / 153 40% 2 03.08.2027 -
Manu Koné AS Roma Aktiv 162 / 166 40% 1 02.08.2027 -
Benjamin White Arsenal Aktiv 171 / 153 40% 2 29.07.2027 -
Rico Lewis Manchester City Aktiv 146 / 147 40% 3 26.07.2027 -
Wesley Fofana Chelsea Aktiv 172 / 173 40% 2 26.07.2027 -
Pablo Barrios Atlético Madrid Aktiv 166 / 154 40% 4 25.07.2027 -
Miloš Kerkez Liverpool Aktiv 156 / 160 40% 1 20.07.2027 -
Boubacar Kamara Aston Villa Aktiv 174 / 165 40% 5 19.07.2027 -
Omar El Hilali Espanyol Aktiv 156 / 147 40% 1 18.07.2027 -
Ousmane Diomande Nottingham Forest Aktiv 153 / 167 40% 1 17.07.2027 -
Jan Paul van Hecke Tottenham Aktiv 165 / 161 40% 1 17.07.2027 -
Johnny Cardoso Atlético Madrid Aktiv 158 / 159 40% 1 15.07.2027 -
Amadou Onana Aston Villa Aktiv 162 / 161 40% 2 14.07.2027 -
Tyler Adams Bournemouth Aktiv 149 / 148 40% 1 13.07.2027 -
Juanlu Bournemouth Aktiv 150 / 152 40% 1 11.07.2027 -
Xaver Schlager Nottingham Forest Aktiv 158 / 155 40% 1 10.07.2027 -
Matthijs de Ligt Manchester United Aktiv 157 / 152 40% 1 09.07.2027 -
Óscar Mingueza Crystal Palace Aktiv 160 / 148 40% 1 07.07.2027 -
Nico González Newcastle United Aktiv 158 / 170 40% 1 05.07.2027 -
José Ángel Carmona Sevilla Aktiv 151 / 152 40% 1 03.07.2027 -
Alexsandro Ribeiro LOSC Lille Aktiv 153 / 150 40% 1 30.06.2027 -
Fran Beltrán Girona Aktiv 147 / 134 40% 1 30.06.2027 -
Mats Wieffer Brighton Aktiv 151 / 151 40% 2 01.06.2027 -
Franculino Crystal Palace Bericht bereit 136 / 140 67% 1 01.06.2027 -
Gabri Veiga Feyenoord Verhandlung 147 / 149 69% 1 01.06.2027 -
Yoann Cathline Utrecht Bericht bereit 132 / 139 62% 1 01.06.2027 -
Dani Olmo Barcelona Aktiv 171 / 170 40% 1 31.05.2027 -
Samu Aghehowa AS Roma Aktiv 147 / 157 40% 1 31.05.2027 -
Félix Lemaréchal Club Brugge Aktiv 137 / 142 40% 1 26.01.2027 -
Raúl Rangel Sporting CP Verhandlung 132 / 132 66% 1 01.01.2027 -
Konstantin Tyukavin Inter Verhandlung 132 / 133 66% 1 01.01.2027 -
Vangelis Pavlidis Twente Abgelehnt 152 / 152 95% 1 01.01.2027 Ablehnen
Stanislav Agkatsev Sunderland Aktiv 133 / 136 78% 1 01.01.2027 -
Georges Mikautadze Villarreal Aktiv 153 / 145 40% 1 31.12.2026 -
Mikel Oyarzábal Real Sociedad Aktiv 164 / 159 40% 1 31.12.2026 -
Agustín Palavecino Cruz Azul Aktiv 150 / 120 40% 1 29.12.2026 -
Raphinha Barcelona Aktiv 181 / 182 40% 3 28.12.2026 -
Marco Asensio Fenerbahce Aktiv 174 / 157 40% 7 27.12.2026 -
Kang-In Lee Atlético Madrid Aktiv 165 / 156 40% 2 27.12.2026 -
Matt O'Riley Brighton Aktiv 150 / 137 40% 3 25.12.2026 -
Kai Havertz Arsenal Aktiv 161 / 156 40% 4 23.12.2026 -
Arnaut Danjuma Valencia Aktiv 139 / 141 40% 2 22.12.2026 -
Jonathan Dubasin Osasuna Aktiv 144 / 151 40% 1 22.12.2026 -
Reiss Nelson Aston Villa Aktiv 133 / 132 40% 2 17.12.2026 -
Mason Mount Manchester United Aktiv 161 / 142 40% 3 16.12.2026 -
Rémi Lemoine Chamois Niortais Aktiv 149 / 159 40% 5 15.12.2026 -
Léo Scienza Southampton Aktiv 131 / 137 40% 2 15.12.2026 -
Javi Puado Espanyol Aktiv 145 / 143 40% 1 13.12.2026 -
Jhon Arias Palmeiras Aktiv 139 / 140 40% 1 11.12.2026 -
Gabriel Jesus Barcelona Aktiv 158 / 163 40% 1 04.12.2026 -
Callum Hudson-Odoi Nottingham Forest Aktiv 148 / 152 40% 1 02.12.2026 -
Jan Virgili Club Brugge Aktiv 127 / 123 40% 7 28.11.2026 -
Amad Manchester United Aktiv 146 / 158 40% 3 25.11.2026 -
Kiernan Dewsbury-Hall Everton Aktiv 152 / 156 40% 1 25.11.2026 -
Carlos Vicente Birmingham Aktiv 151 / 134 40% 3 19.11.2026 -
Yeremy Pino Crystal Palace Aktiv 152 / 140 40% 2 11.11.2026 -
Amine Adli Bournemouth Aktiv 141 / 133 40% 2 09.11.2026 -
Jarrod Bowen West Ham United Aktiv 163 / 155 40% 1 09.11.2026 -
Alexis Mac Allister Liverpool Aktiv 169 / 152 40% 1 03.11.2026 -
Khvicha Kvaratskhelia Paris Saint-Germain Aktiv 172 / 163 40% 1 01.11.2026 -
Christian Tielemans KV Oostende Aktiv 140 / 145 40% 4 26.10.2026 -
Brais Méndez Columbus Crew Aktiv 162 / 129 40% 3 25.10.2026 -
João Pedro Chelsea Aktiv 151 / 158 40% 1 25.10.2026 -
Achraf Hakimi Paris Saint-Germain Aktiv 178 / 179 40% 1 23.10.2026 -
Martín Zubimendi Arsenal Aktiv 167 / 156 40% 1 21.10.2026 -
Duvan Rangel La Equidad Aktiv 144 / 124 40% 1 21.10.2026 -
Tristan Degreef Anderlecht Aktiv 120 / 135 40% 1 17.10.2026 -
Xavi Simons Tottenham Aktiv 153 / 145 40% 1 15.10.2026 -
Orbelín Pineda Monterrey Aktiv 150 / 135 40% 4 12.10.2026 -
Ousmane Dembélé Paris Saint-Germain Aktiv 186 / 174 40% 2 11.10.2026 -
Kyriani Sabbe Club Brugge Aktiv 110 / 126 40% 1 02.10.2026 -
Oussama Idrissi Pachuca Aktiv 127 / 141 40% 2 01.10.2026 -
Alejandro Zendejas Club America Aktiv 141 / 130 40% 2 29.09.2026 -
Mamadou Diakhon Club Brugge Aktiv 112 / 127 40% 1 28.09.2026 -
Leonardo Borja La Equidad Aktiv 144 / 150 40% 3 27.09.2026 -
Erick Sánchez OGC Nice Aktiv 137 / 144 40% 1 20.09.2026 -
Mario Stroeykens Anderlecht Aktiv 132 / 128 40% 1 19.09.2026 -
Mauro Arambarri River Plate Aktiv 157 / 161 40% 2 18.09.2026 -
Saša Lukić Ipswich Town Aktiv 135 / 144 40% 2 16.09.2026 -
Seiya Maikuma AZ Aktiv 133 / 124 40% 1 16.09.2026 -
Yaimar Medina Racing Genk Aktiv 126 / 120 40% 1 15.09.2026 -
Chris Lokesa Waasland-Beveren Aktiv 116 / 121 40% 1 10.09.2026 -
Daniel Muñoz Nottingham Forest Aktiv 138 / 151 40% 1 06.09.2026 -
Joaquin Seys Club Brugge Aktiv 120 / 126 40% 1 05.09.2026 -
Mikel Merino Arsenal Aktiv 146 / 145 40% 1 04.09.2026 -
Dango Ouattara Brentford Aktiv 151 / 146 40% 1 04.09.2026 -
Deniz Ertaş Konyaspor Aktiv 109 / 135 40% 1 24.08.2026 -
Erick Reyes Toluca Aktiv 130 / 151 40% 1 24.08.2026 -
Konrad Laimer Bayern Munich Aktiv 150 / 155 40% 1 02.08.2026 -